createdAt,value
2018-07-03T00:02:20.372Z,74.02
2018-07-03T00:04:47.436Z,73.85
2018-07-03T00:07:14.519Z,72.99
2018-07-03T00:09:41.577Z,74.07
2018-07-03T00:12:08.645Z,74.25
2018-07-03T00:14:35.707Z,74.23
2018-07-03T00:17:08.522Z,74.80
2018-07-03T00:19:35.606Z,75.21
2018-07-03T00:22:02.696Z,74.50
2018-07-03T00:24:29.709Z,74.26
2018-07-03T00:26:56.745Z,74.74
2018-07-03T00:29:23.781Z,75.40
2018-07-03T00:31:50.953Z,74.90
2018-07-03T00:34:18.229Z,75.42
2018-07-03T00:36:45.252Z,75.65
2018-07-03T00:39:12.323Z,76.10
2018-07-03T00:41:39.351Z,76.87
2018-07-03T00:44:06.420Z,76.50
2018-07-03T00:46:33.426Z,76.78
2018-07-03T00:49:00.466Z,77.74
2018-07-03T00:51:27.515Z,77.96
2018-07-03T00:53:54.560Z,77.80
2018-07-03T00:56:21.608Z,77.94
2018-07-03T00:58:48.623Z,78.21
2018-07-03T01:01:15.685Z,78.15
2018-07-03T01:03:42.719Z,78.16
2018-07-03T01:06:09.755Z,79.20
2018-07-03T01:08:36.770Z,79.76
2018-07-03T01:11:03.808Z,79.32
2018-07-03T01:13:30.825Z,79.97
2018-07-03T01:15:57.864Z,79.87
2018-07-03T01:18:24.936Z,80.00
2018-07-03T01:20:51.959Z,80.18
2018-07-03T01:23:19.146Z,80.09
2018-07-03T01:25:46.192Z,80.13
2018-07-03T01:28:13.211Z,80.01
2018-07-03T01:30:40.251Z,80.34
2018-07-03T01:33:07.281Z,79.62
2018-07-03T01:35:34.296Z,80.39
2018-07-03T01:38:01.329Z,80.98
2018-07-03T01:40:28.381Z,80.49
2018-07-03T01:42:55.645Z,80.86
2018-07-03T01:45:22.694Z,81.12
2018-07-03T01:47:49.740Z,81.76
2018-07-03T01:50:16.919Z,81.59
2018-07-03T01:52:43.953Z,82.40
2018-07-03T01:55:10.964Z,82.44
2018-07-03T01:57:37.986Z,82.65
2018-07-03T02:00:05.094Z,83.74
2018-07-03T02:02:32.131Z,83.56
2018-07-03T02:04:59.481Z,84.76
2018-07-03T02:07:26.523Z,84.50
2018-07-03T02:09:53.558Z,84.38
2018-07-03T02:12:20.622Z,84.00
2018-07-03T02:14:47.642Z,84.87
2018-07-03T02:17:14.706Z,84.42
2018-07-03T02:19:41.725Z,84.12
2018-07-03T02:22:08.770Z,84.77
2018-07-03T02:24:35.785Z,85.21
2018-07-03T02:27:02.857Z,85.27
2018-07-03T02:29:29.922Z,85.54
2018-07-03T02:31:56.949Z,85.68
2018-07-03T02:34:23.959Z,84.91
2018-07-03T02:36:50.985Z,85.40
2018-07-03T02:39:18.029Z,85.30
2018-07-03T02:41:45.385Z,86.07
2018-07-03T02:44:12.413Z,86.53
2018-07-03T02:46:39.428Z,87.79
2018-07-03T02:49:06.472Z,88.36
2018-07-03T02:51:33.521Z,87.96
2018-07-03T02:54:00.551Z,88.45
2018-07-03T02:56:27.582Z,88.70
2018-07-03T02:58:54.689Z,89.06
2018-07-03T03:01:21.656Z,89.45
2018-07-03T03:03:48.652Z,89.27
2018-07-03T03:06:15.713Z,89.72
2018-07-03T03:08:42.738Z,89.79
2018-07-03T03:11:09.769Z,89.43
2018-07-03T03:13:36.801Z,89.46
2018-07-03T03:16:03.965Z,89.04
2018-07-03T03:18:30.997Z,90.23
2018-07-03T03:20:58.033Z,90.63
2018-07-03T03:23:25.221Z,90.74
2018-07-03T03:25:52.229Z,91.29
2018-07-03T03:28:19.263Z,91.27
2018-07-03T03:30:46.336Z,90.83
2018-07-03T03:33:13.335Z,90.32
2018-07-03T03:35:40.374Z,90.31
2018-07-03T03:38:07.423Z,90.25
2018-07-03T03:40:34.470Z,90.41
2018-07-03T03:43:01.480Z,90.23
2018-07-03T03:45:28.522Z,89.93
2018-07-03T03:47:55.600Z,89.76
2018-07-03T03:50:22.664Z,90.11
2018-07-03T03:52:49.737Z,90.08
2018-07-03T03:55:16.762Z,90.45
2018-07-03T03:57:43.826Z,90.44
2018-07-03T04:00:10.976Z,90.38
2018-07-03T04:02:38.248Z,90.84
2018-07-03T04:05:05.454Z,90.72
2018-07-03T04:07:32.555Z,91.46
2018-07-03T04:09:59.574Z,91.88
2018-07-03T04:12:26.620Z,91.47
2018-07-03T04:14:53.644Z,91.30
2018-07-03T04:17:20.691Z,91.72
2018-07-03T04:19:47.983Z,91.46
2018-07-03T04:22:14.979Z,91.54
2018-07-03T04:24:42.122Z,91.95
2018-07-03T04:27:09.172Z,91.68
2018-07-03T04:29:36.242Z,92.61
2018-07-03T04:32:03.330Z,92.37
2018-07-03T04:34:30.365Z,90.94
2018-07-03T04:36:57.386Z,90.18
2018-07-03T04:39:24.447Z,89.87
2018-07-03T04:41:51.702Z,88.80
2018-07-03T04:44:18.723Z,86.56
2018-07-03T04:46:45.912Z,87.05
2018-07-03T04:49:12.959Z,86.81
2018-07-03T04:51:39.988Z,87.14
2018-07-03T04:54:07.024Z,86.36
2018-07-03T04:56:34.033Z,85.77
2018-07-03T04:59:01.457Z,85.87
2018-07-03T05:01:28.518Z,85.28
2018-07-03T05:03:55.590Z,85.81
2018-07-03T05:06:22.603Z,85.32
2018-07-03T05:08:49.639Z,85.45
2018-07-03T05:11:16.909Z,83.64
2018-07-03T05:13:43.945Z,82.81
2018-07-03T05:16:11.001Z,82.56
2018-07-03T05:18:38.038Z,82.96
2018-07-03T05:21:05.210Z,81.48
2018-07-03T05:23:32.300Z,80.76
2018-07-03T05:25:59.332Z,80.14
2018-07-03T05:28:26.609Z,79.78
2018-07-03T05:30:53.685Z,78.02
2018-07-03T05:33:20.692Z,78.32
2018-07-03T05:35:47.718Z,78.33
2018-07-03T05:38:14.784Z,77.93
2018-07-03T05:40:41.814Z,76.25
2018-07-03T05:43:09.224Z,75.83
2018-07-03T05:45:36.290Z,75.65
2018-07-03T05:48:03.345Z,75.31
2018-07-03T05:50:30.373Z,74.70
2018-07-03T05:52:57.410Z,74.03
2018-07-03T05:55:24.436Z,74.52
2018-07-03T05:57:51.496Z,73.88
2018-07-03T06:00:18.571Z,73.62
2018-07-03T06:02:45.650Z,72.84
2018-07-03T06:05:12.703Z,72.46
2018-07-03T06:07:39.774Z,72.99
2018-07-03T06:10:06.852Z,72.85
2018-07-03T06:12:33.872Z,71.84
2018-07-03T06:15:01.055Z,70.86
2018-07-03T06:17:27.965Z,70.92
2018-07-03T06:19:55.033Z,71.16
2018-07-03T06:22:22.037Z,70.37
2018-07-03T06:24:49.103Z,69.86
2018-07-03T06:27:16.195Z,70.06
2018-07-03T06:29:43.592Z,69.08
2018-07-03T06:32:10.662Z,69.31
2018-07-03T06:34:37.706Z,69.49
2018-07-03T06:37:04.731Z,69.70
2018-07-03T06:39:31.779Z,69.03
2018-07-03T06:41:58.796Z,69.04
2018-07-03T06:44:26.005Z,68.54
2018-07-03T06:46:53.049Z,67.75
2018-07-03T06:49:20.128Z,67.61
2018-07-03T06:51:47.201Z,67.23
2018-07-03T06:54:14.210Z,68.06
2018-07-03T06:56:41.225Z,65.14
2018-07-03T06:59:08.302Z,65.85
2018-07-03T07:01:35.300Z,64.02
2018-07-03T07:04:02.335Z,61.64
2018-07-03T07:06:29.354Z,61.42
2018-07-03T07:08:56.665Z,61.22
2018-07-03T07:11:23.590Z,61.97
2018-07-03T07:13:50.937Z,61.95
2018-07-03T07:16:18.020Z,61.77
2018-07-03T07:18:45.047Z,61.63
2018-07-03T07:21:12.053Z,61.22
2018-07-03T07:23:39.130Z,60.90
2018-07-03T07:26:06.253Z,59.96
2018-07-03T07:28:33.363Z,57.67
2018-07-03T07:31:00.643Z,57.87
2018-07-03T07:33:27.669Z,58.43
2018-07-03T07:35:54.747Z,58.17
2018-07-03T07:38:21.748Z,57.55
2018-07-03T07:40:48.784Z,57.36
2018-07-03T07:43:15.822Z,57.49
2018-07-03T07:45:42.889Z,55.38
2018-07-03T07:48:09.942Z,54.86
2018-07-03T07:50:36.964Z,55.22
2018-07-03T07:53:04.015Z,52.46
2018-07-03T07:55:31.068Z,52.87
2018-07-03T07:57:58.110Z,52.81
2018-07-03T08:00:25.149Z,51.73
2018-07-03T08:02:52.508Z,49.90
2018-07-03T08:05:19.553Z,52.85
2018-07-03T08:07:46.587Z,51.60
2018-07-03T08:10:13.892Z,50.75
2018-07-03T08:12:40.912Z,49.18
2018-07-03T08:15:07.962Z,48.50
2018-07-03T08:17:35.014Z,49.83
2018-07-03T08:20:02.077Z,48.28
2018-07-03T08:22:29.107Z,48.12
2018-07-03T08:24:56.141Z,49.42
2018-07-03T08:27:23.180Z,48.43
2018-07-03T08:29:50.571Z,48.28
2018-07-03T08:32:17.617Z,46.52
2018-07-03T08:34:44.675Z,47.17
2018-07-03T08:37:11.721Z,46.30
2018-07-03T08:39:38.752Z,46.31
2018-07-03T08:42:05.837Z,44.61
2018-07-03T08:44:32.870Z,45.11
2018-07-03T08:46:59.909Z,44.51
2018-07-03T08:49:26.958Z,44.65
2018-07-03T08:51:54.018Z,43.94
2018-07-03T08:54:21.080Z,43.14
2018-07-03T08:56:48.117Z,42.80
2018-07-03T08:59:15.179Z,43.17
2018-07-03T09:01:42.242Z,42.99
2018-07-03T09:04:09.289Z,41.05
2018-07-03T09:06:36.316Z,41.73
2018-07-03T09:09:06.689Z,42.12
2018-07-03T09:11:33.838Z,42.12
2018-07-03T09:14:00.873Z,42.05
2018-07-03T09:16:27.935Z,41.41
2018-07-03T09:18:55.081Z,41.71
2018-07-03T09:21:22.320Z,40.67
2018-07-03T09:23:49.371Z,39.85
2018-07-03T09:26:16.425Z,41.37
2018-07-03T09:28:43.448Z,40.85
2018-07-03T09:31:17.458Z,39.40
2018-07-03T09:33:44.468Z,38.89
2018-07-03T09:36:11.504Z,37.26
2018-07-03T09:38:38.534Z,36.96
2018-07-03T09:41:06.001Z,37.02
2018-07-03T09:43:33.026Z,35.38
2018-07-03T09:46:00.077Z,36.13
2018-07-03T09:48:27.093Z,37.58
2018-07-03T09:50:54.104Z,35.87
2018-07-03T09:53:21.128Z,36.60
2018-07-03T09:55:48.138Z,38.16
2018-07-03T09:58:15.201Z,35.87
2018-07-03T10:00:47.915Z,36.17
2018-07-03T10:03:14.923Z,36.18
2018-07-03T10:05:41.979Z,37.79
2018-07-03T10:08:09.005Z,38.12
2018-07-03T10:10:36.041Z,38.00
2018-07-03T10:13:03.147Z,35.16
2018-07-03T10:15:30.195Z,34.83
2018-07-03T10:17:57.202Z,34.96
2018-07-03T10:20:24.209Z,34.07
2018-07-03T10:22:51.286Z,35.73
2018-07-03T10:25:18.345Z,36.39
2018-07-03T10:27:45.421Z,37.53
2018-07-03T10:30:12.481Z,37.55
2018-07-03T10:32:39.504Z,37.79
2018-07-03T10:35:06.629Z,37.83
2018-07-03T10:37:33.677Z,38.58
2018-07-03T10:40:00.708Z,38.78
2018-07-03T10:42:27.750Z,39.74
2018-07-03T10:44:54.870Z,41.24
2018-07-03T10:47:21.882Z,42.60
2018-07-03T10:49:48.948Z,43.32
2018-07-03T10:52:16.097Z,44.13
2018-07-03T10:54:43.080Z,42.74
2018-07-03T10:57:10.116Z,43.52
2018-07-03T10:59:37.195Z,41.46
2018-07-03T11:02:04.231Z,41.71
2018-07-03T11:04:31.268Z,41.34
2018-07-03T11:06:58.284Z,40.55
2018-07-03T11:09:25.322Z,39.33
2018-07-03T11:11:52.338Z,35.11
2018-07-03T11:14:19.379Z,34.55
2018-07-03T11:16:46.409Z,30.58
2018-07-03T11:19:13.440Z,32.20
2018-07-03T11:21:40.456Z,32.59
2018-07-03T11:24:07.555Z,33.18
2018-07-03T11:26:34.615Z,34.05
2018-07-03T11:29:01.683Z,36.11
2018-07-03T11:31:28.671Z,36.46
2018-07-03T11:33:55.999Z,36.52
2018-07-03T11:36:23.030Z,39.18
2018-07-03T11:38:50.103Z,39.87
2018-07-03T11:41:17.144Z,39.69
2018-07-03T11:43:44.154Z,40.47
2018-07-03T11:46:11.245Z,40.88
2018-07-03T11:48:38.316Z,41.83
2018-07-03T11:51:05.340Z,42.58
2018-07-03T11:53:32.400Z,40.77
2018-07-03T11:55:59.438Z,41.26
2018-07-03T11:58:26.454Z,41.09
2018-07-03T12:00:53.490Z,40.08
2018-07-03T12:03:20.623Z,42.04
2018-07-03T12:05:47.645Z,40.85
2018-07-03T12:08:14.725Z,39.91
2018-07-03T12:10:41.844Z,40.86
2018-07-03T12:13:09.193Z,40.68
2018-07-03T12:15:36.214Z,41.16
2018-07-03T12:18:03.319Z,42.53
2018-07-03T12:20:30.369Z,42.10
2018-07-03T12:22:57.468Z,41.65
2018-07-03T12:25:24.503Z,43.70
2018-07-03T12:27:51.613Z,42.74
2018-07-03T12:30:18.653Z,42.92
2018-07-03T12:32:45.673Z,43.07
2018-07-03T12:35:12.764Z,43.45
2018-07-03T12:37:39.789Z,40.80
2018-07-03T12:40:06.853Z,41.55
2018-07-03T12:42:34.241Z,41.47
2018-07-03T12:45:01.496Z,40.29
2018-07-03T12:47:28.500Z,39.98
2018-07-03T12:49:55.617Z,38.87
2018-07-03T12:52:22.695Z,37.36
2018-07-03T12:54:49.717Z,36.59
2018-07-03T12:57:16.751Z,37.52
2018-07-03T12:59:43.815Z,38.11
2018-07-03T13:02:10.810Z,35.85
2018-07-03T13:04:37.854Z,37.00
2018-07-03T13:07:04.923Z,37.17
2018-07-03T13:09:31.946Z,37.47
2018-07-03T13:11:58.992Z,37.38
2018-07-03T13:14:26.001Z,35.14
2018-07-03T13:16:53.649Z,34.01
2018-07-03T13:19:20.686Z,35.02
2018-07-03T13:21:47.698Z,35.89
2018-07-03T13:24:14.706Z,34.48
2018-07-03T13:26:41.790Z,34.48
2018-07-03T13:29:09.168Z,35.82
2018-07-03T13:31:36.257Z,34.82
2018-07-03T13:34:03.269Z,36.67
2018-07-03T13:36:30.357Z,36.02
2018-07-03T13:38:57.340Z,36.80
2018-07-03T13:41:24.706Z,35.79
2018-07-03T13:43:51.763Z,36.22
2018-07-03T13:46:19.137Z,33.97
2018-07-03T13:48:46.230Z,33.04
2018-07-03T13:51:13.277Z,34.04
2018-07-03T13:53:40.312Z,35.26
2018-07-03T13:56:07.396Z,34.95
2018-07-03T13:58:34.419Z,36.31
2018-07-03T14:01:01.457Z,36.42
2018-07-03T14:03:28.485Z,34.19
2018-07-03T14:05:56.002Z,33.96
2018-07-03T14:08:23.065Z,34.39
2018-07-03T14:10:50.116Z,33.13
2018-07-03T14:13:17.160Z,33.37
2018-07-03T14:15:44.183Z,35.48
2018-07-03T14:18:11.213Z,33.08
2018-07-03T14:20:38.223Z,30.72
2018-07-03T14:23:05.274Z,29.52
2018-07-03T14:25:32.369Z,30.18
2018-07-03T14:27:59.402Z,30.27
2018-07-03T14:30:26.539Z,29.73
2018-07-03T14:32:53.600Z,30.86
2018-07-03T14:35:20.618Z,32.93
2018-07-03T14:37:47.651Z,31.93
2018-07-03T14:42:48.812Z,33.75
2018-07-03T14:45:15.904Z,34.02
2018-07-03T14:47:42.925Z,34.11
2018-07-03T14:50:10.204Z,33.84
2018-07-03T14:52:37.569Z,33.95
2018-07-03T14:55:04.618Z,34.39
2018-07-03T14:57:31.680Z,35.30
2018-07-03T14:59:58.706Z,34.99
2018-07-03T15:02:25.913Z,36.46
2018-07-03T15:04:52.933Z,34.81
2018-07-03T15:23:55.303Z,35.52
2018-07-03T15:26:22.321Z,37.55
2018-07-03T15:28:49.345Z,37.27
2018-07-03T15:31:16.366Z,37.62
2018-07-03T15:33:43.414Z,39.76
2018-07-03T15:36:10.476Z,39.03
2018-07-03T15:38:37.509Z,38.36
2018-07-03T15:41:04.649Z,40.33
2018-07-03T15:43:31.675Z,36.76
2018-07-03T15:45:58.736Z,36.45
2018-07-03T15:48:25.815Z,37.92
2018-07-03T15:50:52.817Z,36.23
2018-07-03T15:53:19.961Z,37.62
2018-07-03T15:55:47.033Z,35.44
2018-07-03T15:58:14.057Z,36.17
2018-07-03T16:00:41.154Z,34.72
2018-07-03T16:03:19.964Z,36.23
2018-07-03T16:05:59.025Z,36.83
2018-07-03T16:08:38.373Z,36.90
2018-07-03T16:11:05.441Z,37.88
2018-07-03T16:13:32.441Z,35.14
2018-07-03T16:15:59.772Z,36.99
2018-07-03T16:18:27.301Z,36.92
2018-07-03T16:20:54.356Z,37.57
2018-07-03T16:23:21.393Z,37.64
2018-07-03T16:25:48.414Z,36.76
2018-07-03T16:28:15.446Z,37.88
2018-07-03T16:30:42.475Z,37.61
2018-07-03T16:33:09.557Z,38.60
2018-07-03T16:35:36.537Z,39.50
2018-07-03T16:38:03.564Z,37.45
2018-07-03T16:40:30.642Z,38.07
2018-07-03T16:42:57.670Z,39.39
2018-07-03T16:45:24.784Z,38.32
2018-07-03T16:47:51.804Z,38.53
2018-07-03T16:50:18.836Z,40.14
2018-07-03T16:52:45.844Z,39.36
2018-07-03T16:55:12.916Z,39.19
2018-07-03T16:57:39.949Z,40.26
2018-07-03T17:00:06.981Z,41.09
2018-07-03T17:02:33.996Z,41.81
2018-07-03T17:05:01.040Z,40.48
2018-07-03T17:07:28.094Z,40.70
2018-07-03T17:09:55.168Z,41.48
2018-07-03T17:12:22.224Z,40.08
2018-07-03T17:14:49.261Z,41.14
2018-07-03T17:17:16.329Z,39.73
2018-07-03T17:19:43.415Z,38.89
2018-07-03T17:22:10.401Z,39.42
2018-07-03T17:24:37.437Z,40.33
2018-07-03T17:27:05.420Z,40.17
2018-07-03T17:29:33.098Z,40.08
2018-07-03T17:32:00.130Z,40.24
2018-07-03T17:34:27.231Z,41.40
2018-07-03T17:36:54.317Z,40.96
2018-07-03T17:39:21.996Z,40.85
2018-07-03T17:42:00.490Z,41.62
2018-07-03T17:45:40.443Z,42.21
2018-07-03T17:48:08.659Z,43.00
2018-07-03T17:50:36.012Z,44.48
2018-07-03T17:53:03.134Z,44.69
2018-07-03T17:55:30.713Z,45.96
2018-07-03T17:57:58.691Z,46.08
2018-07-03T18:00:25.836Z,47.35
2018-07-03T18:02:53.167Z,47.40
2018-07-03T18:05:20.175Z,48.06
2018-07-03T18:07:47.590Z,48.98
2018-07-03T18:10:14.621Z,49.83
2018-07-03T18:12:41.658Z,49.64
2018-07-03T18:15:08.708Z,50.68
2018-07-03T18:17:35.733Z,50.99
2018-07-03T18:20:02.850Z,51.88
2018-07-03T18:22:29.873Z,51.93
2018-07-03T18:24:56.895Z,52.87
2018-07-03T18:27:23.984Z,53.31
2018-07-03T18:29:51.050Z,53.14
2018-07-03T18:32:18.062Z,53.51
2018-07-03T18:34:45.201Z,53.73
2018-07-03T18:37:12.189Z,54.41
2018-07-03T18:39:39.244Z,54.72
2018-07-03T18:42:06.462Z,54.82
2018-07-03T18:44:33.472Z,55.39
2018-07-03T18:47:00.500Z,57.20
2018-07-03T18:49:27.569Z,56.22
2018-07-03T18:51:54.704Z,57.20
2018-07-03T18:54:21.762Z,58.38
2018-07-03T18:56:48.802Z,60.02
2018-07-03T18:59:15.828Z,60.38
2018-07-03T19:01:42.873Z,60.85
2018-07-03T19:04:10.188Z,60.96
2018-07-03T19:06:37.186Z,62.34
2018-07-03T19:09:05.700Z,63.27
2018-07-03T19:11:32.758Z,63.53
2018-07-03T19:13:59.784Z,64.90
2018-07-03T19:16:26.839Z,65.86
2018-07-03T19:18:53.854Z,65.62
2018-07-03T19:21:20.907Z,66.68
2018-07-03T19:23:47.936Z,65.80
2018-07-03T19:26:15.000Z,67.10
2018-07-03T19:28:42.117Z,67.77
2018-07-03T19:31:09.127Z,67.60
2018-07-03T19:33:36.436Z,68.55
2018-07-03T19:36:03.748Z,68.69
2018-07-03T19:38:30.732Z,68.76
2018-07-03T19:40:57.927Z,69.91
2018-07-03T19:43:27.128Z,71.56
2018-07-03T19:45:54.695Z,72.82
2018-07-03T19:48:21.735Z,72.53
2018-07-03T19:50:50.005Z,72.99
2018-07-03T19:53:17.041Z,73.88
2018-07-03T19:55:44.519Z,73.76
2018-07-03T19:58:11.562Z,74.20
2018-07-03T20:00:38.609Z,73.91
2018-07-03T20:03:05.782Z,74.31
2018-07-03T20:05:33.144Z,73.70
2018-07-03T20:08:00.165Z,74.46
2018-07-03T20:10:27.272Z,75.37
2018-07-03T20:12:54.328Z,75.14
2018-07-03T20:15:21.369Z,76.55
2018-07-03T20:17:48.527Z,76.02
2018-07-03T20:20:15.561Z,76.70
2018-07-03T20:22:42.597Z,77.01
2018-07-03T20:25:09.682Z,77.50
2018-07-03T20:27:36.725Z,77.91
2018-07-03T20:30:03.982Z,77.72
2018-07-03T20:32:31.015Z,77.91
2018-07-03T20:34:58.045Z,78.40
2018-07-03T20:37:25.126Z,78.78
2018-07-03T20:39:52.163Z,78.74
2018-07-03T20:42:19.446Z,78.96
2018-07-03T20:44:46.464Z,79.70
2018-07-03T20:47:13.514Z,79.68
2018-07-03T20:49:40.572Z,80.26
2018-07-03T20:52:07.614Z,80.55
2018-07-03T20:54:34.652Z,80.55
2018-07-03T20:57:01.737Z,80.58
2018-07-03T20:59:28.732Z,81.23
2018-07-03T21:01:55.795Z,81.51
2018-07-03T21:04:22.902Z,82.00
2018-07-03T21:06:49.872Z,81.46
2018-07-03T21:09:16.927Z,82.45
2018-07-03T21:11:44.065Z,82.25
2018-07-03T21:14:11.138Z,83.01
2018-07-03T21:16:38.171Z,83.52
2018-07-03T21:19:05.181Z,84.05
2018-07-03T21:21:32.214Z,84.83
2018-07-03T21:23:59.311Z,84.28
2018-07-03T21:26:26.309Z,84.62
2018-07-03T21:28:53.315Z,85.25
2018-07-03T21:31:20.351Z,85.48
2018-07-03T21:33:47.436Z,85.81
2018-07-03T21:36:14.458Z,87.14
2018-07-03T21:38:41.527Z,86.55
2018-07-03T21:41:08.512Z,86.50
2018-07-03T21:43:35.570Z,86.80
2018-07-03T21:46:02.582Z,87.07
2018-07-03T21:48:29.607Z,86.48
2018-07-03T21:50:56.651Z,87.08
2018-07-03T21:53:23.670Z,87.25
2018-07-03T21:55:50.677Z,87.65
2018-07-03T21:58:17.710Z,87.15
2018-07-03T22:00:44.746Z,88.07
2018-07-03T22:03:11.866Z,88.17
2018-07-03T22:05:39.679Z,88.01
2018-07-03T22:08:06.719Z,88.27
2018-07-03T22:10:33.948Z,87.89
2018-07-03T22:13:01.205Z,88.43
2018-07-03T22:15:28.261Z,88.73
2018-07-03T22:17:55.361Z,89.33
2018-07-03T22:20:22.404Z,89.46
2018-07-03T22:22:49.706Z,89.91
2018-07-03T22:25:16.725Z,89.80
2018-07-03T22:27:43.742Z,90.34
2018-07-03T22:30:10.941Z,91.05
2018-07-03T22:32:37.960Z,90.46
2018-07-03T22:35:04.994Z,90.37
2018-07-03T22:37:32.015Z,91.77
2018-07-03T22:39:59.033Z,90.26
2018-07-03T22:42:32.984Z,90.25
2018-07-03T22:44:59.985Z,90.70
2018-07-03T22:47:27.022Z,90.90
2018-07-03T22:49:54.064Z,90.97
2018-07-03T22:52:21.083Z,91.56
2018-07-03T22:54:48.105Z,91.15
2018-07-03T22:57:15.114Z,90.67
2018-07-03T22:59:42.163Z,91.15
2018-07-03T23:02:09.517Z,91.34
2018-07-03T23:04:36.529Z,91.41
2018-07-03T23:07:03.537Z,92.02
2018-07-03T23:09:30.562Z,92.62
2018-07-03T23:11:57.567Z,92.25
2018-07-03T23:14:24.613Z,92.52
2018-07-03T23:16:51.665Z,93.25
2018-07-03T23:19:18.677Z,93.14
2018-07-03T23:21:45.739Z,93.15
2018-07-03T23:24:13.040Z,93.42
2018-07-03T23:26:40.044Z,92.88
2018-07-03T23:29:07.071Z,92.83
2018-07-03T23:31:34.104Z,92.84
2018-07-03T23:34:01.126Z,93.05
2018-07-03T23:36:28.186Z,93.12
2018-07-03T23:38:55.219Z,93.07
2018-07-03T23:41:22.215Z,92.57
2018-07-03T23:43:49.271Z,92.92
2018-07-03T23:46:27.741Z,93.15
2018-07-03T23:49:06.347Z,93.48
2018-07-03T23:51:45.012Z,93.27
2018-07-03T23:54:23.613Z,94.02
2018-07-03T23:57:02.256Z,93.23
2018-07-03T23:59:40.891Z,91.60
